Van Orin, Illinois
Current Conditions -  °F | °C
As of 8:55 PM on Monday 22 Dec 2014 (Local Time) from KVYS Reporting Station
Drizzle Drizzle  
Wind Chill: 36°   Ceiling: 300
Heat Index: 42°   Visibility: 4mi
Dew Point: 42°   Wind: 12mph
Humidity: 98%   Direction: 120°ESE
Pressure: 29.57"   Gusts: NA
Location:  41.55°N, 89.35°W
Report Text: KVYS 230255Z AUTO 12010KT 4SM -DZ OVC003 06/06 A2957 RMK AO2 P0003 60005 T00580055
Loading
Personal Weather Stations






























Interactive Weather Map New forecast layout! Learn more

10-Day Weather Forecast

Advertisements
Track Severe Weather on mobile